sensor_id;sensor_type;location;lat;lon;timestamp;P1;durP1;ratioP1;P2;durP2;ratioP2
9827;SDS011;4953;48.952;9.442;2022-11-20T05:02:19;7.73;;;5.10;;
9827;SDS011;4953;48.952;9.442;2022-11-20T05:04:46;7.27;;;5.40;;
9827;SDS011;4953;48.952;9.442;2022-11-20T05:07:13;6.07;;;5.20;;
9827;SDS011;4953;48.952;9.442;2022-11-20T05:09:40;6.70;;;4.70;;
9827;SDS011;4953;48.952;9.442;2022-11-20T05:12:07;5.60;;;4.80;;
9827;SDS011;4953;48.952;9.442;2022-11-20T05:14:34;7.07;;;4.90;;
9827;SDS011;4953;48.952;9.442;2022-11-20T05:17:01;5.30;;;4.00;;
9827;SDS011;4953;48.952;9.442;2022-11-20T05:19:29;5.93;;;5.30;;
9827;SDS011;4953;48.952;9.442;2022-11-20T05:21:55;6.27;;;4.50;;
9827;SDS011;4953;48.952;9.442;2022-11-20T05:24:22;8.90;;;4.77;;
9827;SDS011;4953;48.952;9.442;2022-11-20T05:26:49;11.73;;;4.97;;
9827;SDS011;4953;48.952;9.442;2022-11-20T05:29:16;8.50;;;4.90;;
9827;SDS011;4953;48.952;9.442;2022-11-20T05:31:42;4.87;;;4.23;;
9827;SDS011;4953;48.952;9.442;2022-11-20T05:34:09;6.50;;;4.43;;
9827;SDS011;4953;48.952;9.442;2022-11-20T05:36:37;5.83;;;4.60;;
9827;SDS011;4953;48.952;9.442;2022-11-20T05:39:04;5.30;;;4.33;;
9827;SDS011;4953;48.952;9.442;2022-11-20T05:41:32;6.30;;;4.53;;
9827;SDS011;4953;48.952;9.442;2022-11-20T05:43:59;5.10;;;4.60;;
9827;SDS011;4953;48.952;9.442;2022-11-20T05:46:26;6.07;;;5.47;;
9827;SDS011;4953;48.952;9.442;2022-11-20T05:48:53;6.67;;;5.00;;
9827;SDS011;4953;48.952;9.442;2022-11-20T05:51:20;4.47;;;3.97;;
9827;SDS011;4953;48.952;9.442;2022-11-20T05:53:48;4.90;;;3.90;;
9827;SDS011;4953;48.952;9.442;2022-11-20T05:56:16;8.50;;;4.30;;
9827;SDS011;4953;48.952;9.442;2022-11-20T05:58:44;6.30;;;4.67;;
9827;SDS011;4953;48.952;9.442;2022-11-20T06:01:12;4.43;;;4.00;;
9827;SDS011;4953;48.952;9.442;2022-11-20T06:03:41;8.63;;;4.50;;
9827;SDS011;4953;48.952;9.442;2022-11-20T06:06:10;5.50;;;3.93;;
9827;SDS011;4953;48.952;9.442;2022-11-20T06:08:38;5.63;;;4.60;;
9827;SDS011;4953;48.952;9.442;2022-11-20T06:11:07;6.87;;;4.50;;
9827;SDS011;4953;48.952;9.442;2022-11-20T06:13:34;10.33;;;5.00;;
9827;SDS011;4953;48.952;9.442;2022-11-20T06:16:02;4.83;;;4.17;;
9827;SDS011;4953;48.952;9.442;2022-11-20T06:18:29;5.23;;;4.20;;
9827;SDS011;4953;48.952;9.442;2022-11-20T06:21:00;6.40;;;4.10;;
9827;SDS011;4953;48.952;9.442;2022-11-20T06:23:28;4.90;;;4.40;;
9827;SDS011;4953;48.952;9.442;2022-11-20T06:25:55;5.27;;;4.60;;
9827;SDS011;4953;48.952;9.442;2022-11-20T06:28:23;6.10;;;4.30;;
9827;SDS011;4953;48.952;9.442;2022-11-20T06:30:50;5.80;;;4.70;;
9827;SDS011;4953;48.952;9.442;2022-11-20T06:33:16;5.20;;;4.70;;
9827;SDS011;4953;48.952;9.442;2022-11-20T06:35:43;6.40;;;4.50;;
9827;SDS011;4953;48.952;9.442;2022-11-20T06:38:10;4.80;;;4.20;;
9827;SDS011;4953;48.952;9.442;2022-11-20T06:40:39;5.43;;;4.37;;
9827;SDS011;4953;48.952;9.442;2022-11-20T06:43:06;6.13;;;4.60;;
9827;SDS011;4953;48.952;9.442;2022-11-20T06:45:34;5.63;;;4.73;;
9827;SDS011;4953;48.952;9.442;2022-11-20T06:48:01;7.40;;;4.67;;
9827;SDS011;4953;48.952;9.442;2022-11-20T06:50:28;5.80;;;4.70;;
9827;SDS011;4953;48.952;9.442;2022-11-20T06:52:55;6.70;;;4.33;;
9827;SDS011;4953;48.952;9.442;2022-11-20T06:55:21;5.27;;;4.33;;
9827;SDS011;4953;48.952;9.442;2022-11-20T06:57:48;5.13;;;4.60;;
9827;SDS011;4953;48.952;9.442;2022-11-20T07:00:16;5.33;;;4.83;;
9827;SDS011;4953;48.952;9.442;2022-11-20T07:02:45;5.30;;;4.60;;
9827;SDS011;4953;48.952;9.442;2022-11-20T07:05:12;4.83;;;4.30;;
9827;SDS011;4953;48.952;9.442;2022-11-20T07:07:38;6.23;;;4.20;;
9827;SDS011;4953;48.952;9.442;2022-11-20T07:10:05;5.57;;;4.30;;
9827;SDS011;4953;48.952;9.442;2022-11-20T07:12:33;5.97;;;4.27;;
9827;SDS011;4953;48.952;9.442;2022-11-20T07:14:59;7.77;;;4.50;;
9827;SDS011;4953;48.952;9.442;2022-11-20T07:17:26;7.53;;;4.90;;
9827;SDS011;4953;48.952;9.442;2022-11-20T07:19:54;5.70;;;4.60;;
9827;SDS011;4953;48.952;9.442;2022-11-20T07:22:21;8.23;;;5.43;;
9827;SDS011;4953;48.952;9.442;2022-11-20T07:24:48;8.57;;;5.70;;
9827;SDS011;4953;48.952;9.442;2022-11-20T07:27:14;4.60;;;3.70;;
9827;SDS011;4953;48.952;9.442;2022-11-20T07:29:41;4.50;;;4.10;;
9827;SDS011;4953;48.952;9.442;2022-11-20T07:32:08;6.00;;;4.20;;
9827;SDS011;4953;48.952;9.442;2022-11-20T07:34:35;7.43;;;5.23;;
9827;SDS011;4953;48.952;9.442;2022-11-20T07:37:03;6.07;;;4.53;;
9827;SDS011;4953;48.952;9.442;2022-11-20T07:39:30;5.97;;;4.43;;
9827;SDS011;4953;48.952;9.442;2022-11-20T07:41:56;7.30;;;4.90;;
9827;SDS011;4953;48.952;9.442;2022-11-20T07:44:23;5.00;;;4.30;;
9827;SDS011;4953;48.952;9.442;2022-11-20T07:46:50;4.80;;;4.17;;
9827;SDS011;4953;48.952;9.442;2022-11-20T07:49:16;6.83;;;4.20;;
9827;SDS011;4953;48.952;9.442;2022-11-20T07:51:43;7.13;;;4.37;;
9827;SDS011;4953;48.952;9.442;2022-11-20T07:54:11;3.97;;;3.53;;
9827;SDS011;4953;48.952;9.442;2022-11-20T07:56:38;5.20;;;3.67;;
9827;SDS011;4953;48.952;9.442;2022-11-20T07:59:05;5.33;;;3.97;;
9827;SDS011;4953;48.952;9.442;2022-11-20T08:01:32;6.93;;;4.47;;
9827;SDS011;4953;48.952;9.442;2022-11-20T08:03:58;4.43;;;4.00;;
9827;SDS011;4953;48.952;9.442;2022-11-20T08:06:25;4.33;;;3.60;;
9827;SDS011;4953;48.952;9.442;2022-11-20T08:08:52;3.90;;;3.60;;
9827;SDS011;4953;48.952;9.442;2022-11-20T08:11:20;4.97;;;4.00;;
9827;SDS011;4953;48.952;9.442;2022-11-20T08:14:05;4.23;;;3.80;;
9827;SDS011;4953;48.952;9.442;2022-11-20T08:16:41;5.63;;;4.70;;
9827;SDS011;4953;48.952;9.442;2022-11-20T08:19:09;5.80;;;4.70;;
9827;SDS011;4953;48.952;9.442;2022-11-20T08:21:37;6.30;;;4.40;;
9827;SDS011;4953;48.952;9.442;2022-11-20T08:24:04;8.43;;;4.70;;
9827;SDS011;4953;48.952;9.442;2022-11-20T08:26:33;9.20;;;4.93;;
9827;SDS011;4953;48.952;9.442;2022-11-20T08:29:00;8.23;;;5.27;;
9827;SDS011;4953;48.952;9.442;2022-11-20T08:31:27;8.47;;;5.63;;
9827;SDS011;4953;48.952;9.442;2022-11-20T08:33:54;7.47;;;5.30;;
9827;SDS011;4953;48.952;9.442;2022-11-20T08:36:22;6.40;;;4.50;;
9827;SDS011;4953;48.952;9.442;2022-11-20T08:38:50;6.33;;;4.50;;
9827;SDS011;4953;48.952;9.442;2022-11-20T08:41:18;6.70;;;4.93;;
9827;SDS011;4953;48.952;9.442;2022-11-20T08:43:53;5.30;;;4.50;;
9827;SDS011;4953;48.952;9.442;2022-11-20T08:46:22;6.80;;;5.50;;
9827;SDS011;4953;48.952;9.442;2022-11-20T08:48:50;7.23;;;5.70;;
9827;SDS011;4953;48.952;9.442;2022-11-20T08:51:17;5.73;;;5.17;;
9827;SDS011;4953;48.952;9.442;2022-11-20T08:53:44;6.60;;;5.90;;
9827;SDS011;4953;48.952;9.442;2022-11-20T08:56:13;8.23;;;5.17;;
9827;SDS011;4953;48.952;9.442;2022-11-20T08:58:40;7.57;;;5.13;;
9827;SDS011;4953;48.952;9.442;2022-11-20T09:01:08;5.90;;;5.20;;
9827;SDS011;4953;48.952;9.442;2022-11-20T09:03:35;7.60;;;5.23;;
9827;SDS011;4953;48.952;9.442;2022-11-20T09:06:02;7.40;;;6.13;;
9827;SDS011;4953;48.952;9.442;2022-11-20T09:08:31;7.87;;;5.37;;
9827;SDS011;4953;48.952;9.442;2022-11-20T09:10:58;9.13;;;5.40;;
9827;SDS011;4953;48.952;9.442;2022-11-20T09:13:26;9.57;;;5.80;;
9827;SDS011;4953;48.952;9.442;2022-11-20T09:15:54;6.10;;;5.27;;
9827;SDS011;4953;48.952;9.442;2022-11-20T09:18:22;7.40;;;5.00;;
9827;SDS011;4953;48.952;9.442;2022-11-20T09:20:49;8.67;;;6.03;;
9827;SDS011;4953;48.952;9.442;2022-11-20T09:23:17;6.70;;;5.80;;
9827;SDS011;4953;48.952;9.442;2022-11-20T09:25:44;7.70;;;5.97;;
9827;SDS011;4953;48.952;9.442;2022-11-20T09:28:10;6.93;;;5.50;;
9827;SDS011;4953;48.952;9.442;2022-11-20T09:30:37;8.60;;;5.67;;
9827;SDS011;4953;48.952;9.442;2022-11-20T09:33:04;9.80;;;5.30;;
9827;SDS011;4953;48.952;9.442;2022-11-20T09:35:33;9.70;;;5.50;;
9827;SDS011;4953;48.952;9.442;2022-11-20T09:38:04;7.73;;;5.77;;
9827;SDS011;4953;48.952;9.442;2022-11-20T09:40:31;8.90;;;5.57;;
9827;SDS011;4953;48.952;9.442;2022-11-20T09:43:01;6.23;;;5.50;;
9827;SDS011;4953;48.952;9.442;2022-11-20T09:45:37;11.70;;;5.70;;
9827;SDS011;4953;48.952;9.442;2022-11-20T09:48:18;9.00;;;6.80;;
9827;SDS011;4953;48.952;9.442;2022-11-20T09:50:57;8.53;;;6.00;;
9827;SDS011;4953;48.952;9.442;2022-11-20T09:53:31;8.70;;;5.77;;
9827;SDS011;4953;48.952;9.442;2022-11-20T09:56:19;6.77;;;5.63;;
9827;SDS011;4953;48.952;9.442;2022-11-20T09:58:47;9.20;;;6.47;;
9827;SDS011;4953;48.952;9.442;2022-11-20T10:01:17;8.43;;;7.07;;
9827;SDS011;4953;48.952;9.442;2022-11-20T10:03:48;8.60;;;7.00;;
9827;SDS011;4953;48.952;9.442;2022-11-20T10:06:21;9.43;;;6.17;;
9827;SDS011;4953;48.952;9.442;2022-11-20T10:08:55;13.03;;;8.27;;
9827;SDS011;4953;48.952;9.442;2022-11-20T10:11:33;11.70;;;8.60;;
9827;SDS011;4953;48.952;9.442;2022-11-20T10:14:12;13.70;;;9.30;;
9827;SDS011;4953;48.952;9.442;2022-11-20T10:16:48;13.17;;;8.27;;
9827;SDS011;4953;48.952;9.442;2022-11-20T10:19:26;11.87;;;7.83;;
9827;SDS011;4953;48.952;9.442;2022-11-20T10:22:02;9.83;;;6.53;;
9827;SDS011;4953;48.952;9.442;2022-11-20T10:24:39;8.10;;;6.30;;
9827;SDS011;4953;48.952;9.442;2022-11-20T10:27:15;8.17;;;5.63;;
9827;SDS011;4953;48.952;9.442;2022-11-20T10:30:10;7.93;;;6.13;;
9827;SDS011;4953;48.952;9.442;2022-11-20T10:32:40;9.03;;;5.87;;
9827;SDS011;4953;48.952;9.442;2022-11-20T10:35:14;8.77;;;5.87;;
9827;SDS011;4953;48.952;9.442;2022-11-20T10:37:48;6.97;;;5.97;;
9827;SDS011;4953;48.952;9.442;2022-11-20T10:40:20;5.10;;;4.60;;
9827;SDS011;4953;48.952;9.442;2022-11-20T10:42:56;4.63;;;3.70;;
9827;SDS011;4953;48.952;9.442;2022-11-20T10:45:34;3.80;;;3.40;;
9827;SDS011;4953;48.952;9.442;2022-11-20T10:48:10;4.20;;;3.80;;
9827;SDS011;4953;48.952;9.442;2022-11-20T10:50:43;5.20;;;4.37;;
9827;SDS011;4953;48.952;9.442;2022-11-20T10:53:19;4.20;;;3.53;;
9827;SDS011;4953;48.952;9.442;2022-11-20T10:55:57;4.33;;;3.20;;
9827;SDS011;4953;48.952;9.442;2022-11-20T10:58:33;3.63;;;3.33;;
9827;SDS011;4953;48.952;9.442;2022-11-20T11:01:05;4.10;;;3.67;;
9827;SDS011;4953;48.952;9.442;2022-11-20T11:03:39;4.47;;;3.97;;
9827;SDS011;4953;48.952;9.442;2022-11-20T11:06:10;3.60;;;3.10;;
9827;SDS011;4953;48.952;9.442;2022-11-20T11:08:48;6.47;;;3.77;;
9827;SDS011;4953;48.952;9.442;2022-11-20T11:11:21;4.50;;;4.10;;
9827;SDS011;4953;48.952;9.442;2022-11-20T11:13:49;4.33;;;3.93;;
9827;SDS011;4953;48.952;9.442;2022-11-20T11:16:19;7.23;;;4.20;;
9827;SDS011;4953;48.952;9.442;2022-11-20T11:18:48;3.30;;;3.00;;
9827;SDS011;4953;48.952;9.442;2022-11-20T11:21:19;3.53;;;3.00;;
9827;SDS011;4953;48.952;9.442;2022-11-20T11:23:56;3.57;;;3.27;;
9827;SDS011;4953;48.952;9.442;2022-11-20T11:26:25;3.13;;;2.93;;
9827;SDS011;4953;48.952;9.442;2022-11-20T11:28:53;3.60;;;3.00;;
9827;SDS011;4953;48.952;9.442;2022-11-20T11:31:22;4.17;;;3.40;;
9827;SDS011;4953;48.952;9.442;2022-11-20T11:33:49;7.10;;;3.47;;
9827;SDS011;4953;48.952;9.442;2022-11-20T11:36:16;8.67;;;5.40;;
9827;SDS011;4953;48.952;9.442;2022-11-20T11:38:48;6.60;;;4.53;;
9827;SDS011;4953;48.952;9.442;2022-11-20T11:41:21;6.83;;;4.30;;
9827;SDS011;4953;48.952;9.442;2022-11-20T11:43:52;4.97;;;4.07;;
9827;SDS011;4953;48.952;9.442;2022-11-20T11:46:38;4.83;;;4.10;;
9827;SDS011;4953;48.952;9.442;2022-11-20T11:49:15;7.30;;;4.43;;
9827;SDS011;4953;48.952;9.442;2022-11-20T11:51:50;6.10;;;4.60;;
9827;SDS011;4953;48.952;9.442;2022-11-20T11:54:28;12.27;;;5.20;;
9827;SDS011;4953;48.952;9.442;2022-11-20T11:57:01;7.97;;;4.90;;
9827;SDS011;4953;48.952;9.442;2022-11-20T11:59:39;10.60;;;6.40;;
9827;SDS011;4953;48.952;9.442;2022-11-20T12:02:14;7.70;;;6.10;;
9827;SDS011;4953;48.952;9.442;2022-11-20T12:04:54;8.90;;;5.73;;
9827;SDS011;4953;48.952;9.442;2022-11-20T12:07:28;11.73;;;6.13;;
9827;SDS011;4953;48.952;9.442;2022-11-20T12:10:04;7.17;;;4.93;;
9827;SDS011;4953;48.952;9.442;2022-11-20T12:12:40;9.37;;;5.90;;
9827;SDS011;4953;48.952;9.442;2022-11-20T12:15:10;7.40;;;5.37;;
9827;SDS011;4953;48.952;9.442;2022-11-20T12:17:42;6.20;;;4.13;;
9827;SDS011;4953;48.952;9.442;2022-11-20T12:20:11;10.67;;;5.13;;
9827;SDS011;4953;48.952;9.442;2022-11-20T12:22:41;7.67;;;4.20;;
9827;SDS011;4953;48.952;9.442;2022-11-20T12:25:17;7.50;;;3.77;;
9827;SDS011;4953;48.952;9.442;2022-11-20T12:28:02;4.93;;;2.77;;
9827;SDS011;4953;48.952;9.442;2022-11-20T12:30:40;6.77;;;3.30;;
9827;SDS011;4953;48.952;9.442;2022-11-20T12:33:14;6.03;;;2.23;;
9827;SDS011;4953;48.952;9.442;2022-11-20T12:35:59;3.77;;;1.90;;
9827;SDS011;4953;48.952;9.442;2022-11-20T12:38:42;3.47;;;2.23;;
9827;SDS011;4953;48.952;9.442;2022-11-20T12:41:22;2.37;;;2.10;;
9827;SDS011;4953;48.952;9.442;2022-11-20T12:44:19;4.10;;;2.20;;
9827;SDS011;4953;48.952;9.442;2022-11-20T12:47:21;4.07;;;2.67;;
9827;SDS011;4953;48.952;9.442;2022-11-20T12:49:56;4.30;;;2.30;;
9827;SDS011;4953;48.952;9.442;2022-11-20T12:52:37;5.03;;;2.53;;
9827;SDS011;4953;48.952;9.442;2022-11-20T12:55:14;4.20;;;2.70;;
9827;SDS011;4953;48.952;9.442;2022-11-20T12:57:49;3.30;;;2.10;;
9827;SDS011;4953;48.952;9.442;2022-11-20T13:00:21;6.97;;;2.13;;
9827;SDS011;4953;48.952;9.442;2022-11-20T13:02:58;3.63;;;2.00;;
9827;SDS011;4953;48.952;9.442;2022-11-20T13:05:35;5.57;;;2.20;;
9827;SDS011;4953;48.952;9.442;2022-11-20T13:08:11;7.13;;;2.10;;
9827;SDS011;4953;48.952;9.442;2022-11-20T13:10:46;3.47;;;2.30;;
9827;SDS011;4953;48.952;9.442;2022-11-20T13:13:20;2.70;;;2.50;;
9827;SDS011;4953;48.952;9.442;2022-11-20T13:15:54;4.23;;;2.27;;
9827;SDS011;4953;48.952;9.442;2022-11-20T13:18:25;4.70;;;1.90;;
9827;SDS011;4953;48.952;9.442;2022-11-20T13:20:53;1.80;;;1.70;;
9827;SDS011;4953;48.952;9.442;2022-11-20T13:23:23;2.37;;;1.97;;
9827;SDS011;4953;48.952;9.442;2022-11-20T13:26:02;2.33;;;1.93;;
9827;SDS011;4953;48.952;9.442;2022-11-20T13:28:30;4.90;;;1.80;;
9827;SDS011;4953;48.952;9.442;2022-11-20T13:30:59;2.83;;;1.60;;
9827;SDS011;4953;48.952;9.442;2022-11-20T13:33:27;1.77;;;1.60;;
9827;SDS011;4953;48.952;9.442;2022-11-20T13:35:57;4.37;;;1.90;;
9827;SDS011;4953;48.952;9.442;2022-11-20T13:38:25;5.13;;;1.93;;
9827;SDS011;4953;48.952;9.442;2022-11-20T13:40:53;2.13;;;1.93;;
9827;SDS011;4953;48.952;9.442;2022-11-20T13:43:23;3.00;;;1.50;;
9827;SDS011;4953;48.952;9.442;2022-11-20T13:45:55;2.17;;;1.50;;
9827;SDS011;4953;48.952;9.442;2022-11-20T13:48:25;6.73;;;2.13;;
9827;SDS011;4953;48.952;9.442;2022-11-20T13:53:49;1.90;;;1.80;;
9827;SDS011;4953;48.952;9.442;2022-11-20T13:56:40;3.00;;;1.93;;
9827;SDS011;4953;48.952;9.442;2022-11-20T13:59:23;1.87;;;1.40;;
9827;SDS011;4953;48.952;9.442;2022-11-20T14:02:10;3.90;;;1.97;;
9827;SDS011;4953;48.952;9.442;2022-11-20T14:04:41;5.20;;;1.60;;
9827;SDS011;4953;48.952;9.442;2022-11-20T14:07:10;2.23;;;1.20;;
9827;SDS011;4953;48.952;9.442;2022-11-20T14:09:38;3.60;;;1.50;;
9827;SDS011;4953;48.952;9.442;2022-11-20T14:12:15;3.00;;;1.90;;
9827;SDS011;4953;48.952;9.442;2022-11-20T14:14:47;2.60;;;1.60;;
9827;SDS011;4953;48.952;9.442;2022-11-20T14:17:17;3.07;;;1.87;;
9827;SDS011;4953;48.952;9.442;2022-11-20T14:19:47;6.13;;;1.60;;
9827;SDS011;4953;48.952;9.442;2022-11-20T14:22:19;2.30;;;1.93;;
9827;SDS011;4953;48.952;9.442;2022-11-20T14:24:47;4.43;;;1.70;;
9827;SDS011;4953;48.952;9.442;2022-11-20T14:27:16;4.93;;;2.73;;
9827;SDS011;4953;48.952;9.442;2022-11-20T14:29:46;4.73;;;2.40;;
9827;SDS011;4953;48.952;9.442;2022-11-20T14:32:14;5.00;;;2.23;;
9827;SDS011;4953;48.952;9.442;2022-11-20T14:34:43;4.83;;;3.50;;
9827;SDS011;4953;48.952;9.442;2022-11-20T14:37:13;3.53;;;1.90;;
9827;SDS011;4953;48.952;9.442;2022-11-20T14:39:48;2.33;;;2.13;;
9827;SDS011;4953;48.952;9.442;2022-11-20T14:42:17;9.77;;;6.57;;
9827;SDS011;4953;48.952;9.442;2022-11-20T14:44:45;12.40;;;6.87;;
9827;SDS011;4953;48.952;9.442;2022-11-20T14:47:15;7.10;;;3.43;;
9827;SDS011;4953;48.952;9.442;2022-11-20T14:49:46;4.70;;;2.60;;
9827;SDS011;4953;48.952;9.442;2022-11-20T14:52:16;2.60;;;1.87;;
9827;SDS011;4953;48.952;9.442;2022-11-20T14:54:45;3.27;;;1.57;;
9827;SDS011;4953;48.952;9.442;2022-11-20T14:57:26;3.60;;;1.67;;
9827;SDS011;4953;48.952;9.442;2022-11-20T15:02:45;5.07;;;1.80;;
9827;SDS011;4953;48.952;9.442;2022-11-20T15:05:14;2.67;;;2.17;;
9827;SDS011;4953;48.952;9.442;2022-11-20T15:07:44;3.70;;;2.53;;
9827;SDS011;4953;48.952;9.442;2022-11-20T15:10:12;5.20;;;3.40;;
9827;SDS011;4953;48.952;9.442;2022-11-20T15:12:46;3.07;;;2.50;;
9827;SDS011;4953;48.952;9.442;2022-11-20T15:15:15;4.43;;;2.90;;
9827;SDS011;4953;48.952;9.442;2022-11-20T15:17:45;3.17;;;1.93;;
9827;SDS011;4953;48.952;9.442;2022-11-20T15:20:13;2.13;;;1.70;;
9827;SDS011;4953;48.952;9.442;2022-11-20T15:22:42;2.03;;;1.87;;
9827;SDS011;4953;48.952;9.442;2022-11-20T15:25:13;3.23;;;1.90;;
9827;SDS011;4953;48.952;9.442;2022-11-20T15:27:41;2.47;;;2.27;;
9827;SDS011;4953;48.952;9.442;2022-11-20T15:30:15;3.43;;;2.40;;
9827;SDS011;4953;48.952;9.442;2022-11-20T15:32:44;2.97;;;2.23;;
9827;SDS011;4953;48.952;9.442;2022-11-20T15:35:12;9.20;;;3.40;;
9827;SDS011;4953;48.952;9.442;2022-11-20T15:37:40;5.20;;;3.07;;
9827;SDS011;4953;48.952;9.442;2022-11-20T15:40:09;3.50;;;2.40;;
9827;SDS011;4953;48.952;9.442;2022-11-20T15:42:36;3.47;;;2.47;;
9827;SDS011;4953;48.952;9.442;2022-11-20T15:45:03;4.33;;;2.60;;
9827;SDS011;4953;48.952;9.442;2022-11-20T15:47:32;4.80;;;2.90;;
9827;SDS011;4953;48.952;9.442;2022-11-20T15:50:01;5.10;;;4.13;;
9827;SDS011;4953;48.952;9.442;2022-11-20T15:52:28;13.40;;;4.33;;
9827;SDS011;4953;48.952;9.442;2022-11-20T15:54:55;3.67;;;3.20;;
9827;SDS011;4953;48.952;9.442;2022-11-20T15:57:23;5.23;;;3.10;;
9827;SDS011;4953;48.952;9.442;2022-11-20T15:59:50;5.07;;;3.33;;
9827;SDS011;4953;48.952;9.442;2022-11-20T16:02:17;8.20;;;3.30;;
9827;SDS011;4953;48.952;9.442;2022-11-20T16:04:43;6.83;;;3.70;;
9827;SDS011;4953;48.952;9.442;2022-11-20T16:07:10;5.93;;;3.93;;
9827;SDS011;4953;48.952;9.442;2022-11-20T16:09:38;7.23;;;4.10;;
9827;SDS011;4953;48.952;9.442;2022-11-20T16:12:05;6.30;;;3.17;;
9827;SDS011;4953;48.952;9.442;2022-11-20T16:14:55;5.63;;;3.13;;
9827;SDS011;4953;48.952;9.442;2022-11-20T16:17:39;7.73;;;3.40;;
9827;SDS011;4953;48.952;9.442;2022-11-20T16:20:10;6.00;;;3.10;;
9827;SDS011;4953;48.952;9.442;2022-11-20T16:22:40;3.90;;;2.93;;
9827;SDS011;4953;48.952;9.442;2022-11-20T16:25:07;3.67;;;3.20;;
9827;SDS011;4953;48.952;9.442;2022-11-20T16:27:33;4.77;;;2.83;;
9827;SDS011;4953;48.952;9.442;2022-11-20T16:30:02;5.20;;;3.10;;
9827;SDS011;4953;48.952;9.442;2022-11-20T16:32:29;3.83;;;3.13;;
9827;SDS011;4953;48.952;9.442;2022-11-20T16:34:56;7.30;;;3.90;;
9827;SDS011;4953;48.952;9.442;2022-11-20T16:37:23;5.20;;;3.73;;
9827;SDS011;4953;48.952;9.442;2022-11-20T16:39:50;5.30;;;3.90;;
9827;SDS011;4953;48.952;9.442;2022-11-20T16:42:17;8.30;;;3.60;;
9827;SDS011;4953;48.952;9.442;2022-11-20T16:44:45;4.67;;;3.43;;
9827;SDS011;4953;48.952;9.442;2022-11-20T16:47:13;5.33;;;3.90;;
9827;SDS011;4953;48.952;9.442;2022-11-20T16:49:40;6.20;;;4.53;;
9827;SDS011;4953;48.952;9.442;2022-11-20T16:52:07;11.57;;;6.53;;
9827;SDS011;4953;48.952;9.442;2022-11-20T16:54:34;11.50;;;6.70;;
9827;SDS011;4953;48.952;9.442;2022-11-20T16:57:01;11.83;;;6.57;;
9827;SDS011;4953;48.952;9.442;2022-11-20T16:59:28;7.80;;;5.43;;
9827;SDS011;4953;48.952;9.442;2022-11-20T17:01:55;8.03;;;5.33;;
9827;SDS011;4953;48.952;9.442;2022-11-20T17:04:23;7.73;;;3.80;;
9827;SDS011;4953;48.952;9.442;2022-11-20T17:06:50;4.13;;;3.70;;
9827;SDS011;4953;48.952;9.442;2022-11-20T17:09:17;5.77;;;3.50;;
9827;SDS011;4953;48.952;9.442;2022-11-20T17:11:43;4.30;;;3.40;;
9827;SDS011;4953;48.952;9.442;2022-11-20T17:14:11;4.80;;;3.47;;
9827;SDS011;4953;48.952;9.442;2022-11-20T17:16:37;5.00;;;3.67;;
9827;SDS011;4953;48.952;9.442;2022-11-20T17:19:04;6.00;;;3.80;;
9827;SDS011;4953;48.952;9.442;2022-11-20T17:21:34;4.00;;;3.57;;
9827;SDS011;4953;48.952;9.442;2022-11-20T17:24:01;4.50;;;3.13;;
9827;SDS011;4953;48.952;9.442;2022-11-20T17:26:29;4.87;;;3.20;;
9827;SDS011;4953;48.952;9.442;2022-11-20T17:28:57;4.33;;;3.00;;
9827;SDS011;4953;48.952;9.442;2022-11-20T17:31:25;3.90;;;3.23;;
9827;SDS011;4953;48.952;9.442;2022-11-20T17:33:53;3.50;;;3.20;;
9827;SDS011;4953;48.952;9.442;2022-11-20T17:36:20;3.93;;;3.47;;
9827;SDS011;4953;48.952;9.442;2022-11-20T17:38:49;3.73;;;3.37;;
9827;SDS011;4953;48.952;9.442;2022-11-20T17:41:16;7.73;;;3.50;;
9827;SDS011;4953;48.952;9.442;2022-11-20T17:43:44;4.37;;;3.60;;
9827;SDS011;4953;48.952;9.442;2022-11-20T17:46:12;4.83;;;3.17;;
9827;SDS011;4953;48.952;9.442;2022-11-20T17:48:40;6.17;;;3.00;;
9827;SDS011;4953;48.952;9.442;2022-11-20T17:51:08;5.20;;;2.80;;
9827;SDS011;4953;48.952;9.442;2022-11-20T17:53:37;4.10;;;3.23;;
9827;SDS011;4953;48.952;9.442;2022-11-20T17:56:06;3.73;;;2.93;;
9827;SDS011;4953;48.952;9.442;2022-11-20T17:58:50;3.70;;;2.70;;
9827;SDS011;4953;48.952;9.442;2022-11-20T18:01:17;2.90;;;2.70;;
9827;SDS011;4953;48.952;9.442;2022-11-20T18:03:44;5.00;;;2.97;;
9827;SDS011;4953;48.952;9.442;2022-11-20T18:06:12;6.13;;;3.13;;
9827;SDS011;4953;48.952;9.442;2022-11-20T18:08:40;3.73;;;2.97;;
9827;SDS011;4953;48.952;9.442;2022-11-20T18:11:09;4.03;;;2.97;;
9827;SDS011;4953;48.952;9.442;2022-11-20T18:13:37;3.57;;;2.57;;
9827;SDS011;4953;48.952;9.442;2022-11-20T18:16:21;6.13;;;3.67;;
9827;SDS011;4953;48.952;9.442;2022-11-20T18:18:48;3.67;;;2.77;;
9827;SDS011;4953;48.952;9.442;2022-11-20T18:21:15;4.43;;;2.97;;
9827;SDS011;4953;48.952;9.442;2022-11-20T18:23:42;4.57;;;2.80;;
9827;SDS011;4953;48.952;9.442;2022-11-20T18:26:10;2.83;;;2.43;;
9827;SDS011;4953;48.952;9.442;2022-11-20T18:28:37;6.07;;;2.70;;
9827;SDS011;4953;48.952;9.442;2022-11-20T18:31:05;2.53;;;2.33;;
9827;SDS011;4953;48.952;9.442;2022-11-20T18:33:32;2.27;;;2.07;;
9827;SDS011;4953;48.952;9.442;2022-11-20T18:36:07;4.93;;;2.50;;
9827;SDS011;4953;48.952;9.442;2022-11-20T18:38:34;2.77;;;2.53;;
9827;SDS011;4953;48.952;9.442;2022-11-20T18:41:04;7.63;;;3.50;;
9827;SDS011;4953;48.952;9.442;2022-11-20T18:43:33;4.73;;;4.20;;
9827;SDS011;4953;48.952;9.442;2022-11-20T18:46:17;2.60;;;2.40;;
9827;SDS011;4953;48.952;9.442;2022-11-20T18:48:46;3.83;;;2.70;;
9827;SDS011;4953;48.952;9.442;2022-11-20T18:51:12;3.87;;;2.40;;
9827;SDS011;4953;48.952;9.442;2022-11-20T18:53:40;4.50;;;2.67;;
9827;SDS011;4953;48.952;9.442;2022-11-20T18:56:07;4.63;;;2.50;;
9827;SDS011;4953;48.952;9.442;2022-11-20T18:58:35;4.10;;;2.50;;
9827;SDS011;4953;48.952;9.442;2022-11-20T19:01:04;2.80;;;2.60;;
9827;SDS011;4953;48.952;9.442;2022-11-20T19:03:32;3.43;;;2.83;;
9827;SDS011;4953;48.952;9.442;2022-11-20T19:05:59;4.50;;;3.00;;
9827;SDS011;4953;48.952;9.442;2022-11-20T19:08:26;7.40;;;4.20;;
9827;SDS011;4953;48.952;9.442;2022-11-20T19:10:52;2.73;;;2.47;;
9827;SDS011;4953;48.952;9.442;2022-11-20T19:13:19;4.27;;;2.90;;
9827;SDS011;4953;48.952;9.442;2022-11-20T19:15:47;4.60;;;3.20;;
9827;SDS011;4953;48.952;9.442;2022-11-20T19:18:14;5.13;;;3.20;;
9827;SDS011;4953;48.952;9.442;2022-11-20T19:20:41;5.97;;;2.80;;
9827;SDS011;4953;48.952;9.442;2022-11-20T19:23:08;2.80;;;2.10;;
9827;SDS011;4953;48.952;9.442;2022-11-20T19:25:35;4.23;;;2.43;;
9827;SDS011;4953;48.952;9.442;2022-11-20T19:28:02;3.10;;;2.13;;
9827;SDS011;4953;48.952;9.442;2022-11-20T19:30:29;2.20;;;2.00;;
9827;SDS011;4953;48.952;9.442;2022-11-20T19:32:57;2.33;;;2.10;;
9827;SDS011;4953;48.952;9.442;2022-11-20T19:35:23;4.63;;;2.77;;
9827;SDS011;4953;48.952;9.442;2022-11-20T19:37:50;2.80;;;2.13;;
9827;SDS011;4953;48.952;9.442;2022-11-20T19:40:17;3.10;;;2.30;;
9827;SDS011;4953;48.952;9.442;2022-11-20T19:42:44;4.83;;;2.43;;
9827;SDS011;4953;48.952;9.442;2022-11-20T19:45:11;3.27;;;2.40;;
9827;SDS011;4953;48.952;9.442;2022-11-20T19:47:37;2.50;;;2.30;;
9827;SDS011;4953;48.952;9.442;2022-11-20T19:50:06;4.13;;;2.80;;
9827;SDS011;4953;48.952;9.442;2022-11-20T19:52:33;4.53;;;2.40;;
9827;SDS011;4953;48.952;9.442;2022-11-20T19:55:00;2.50;;;2.30;;
9827;SDS011;4953;48.952;9.442;2022-11-20T19:57:27;4.60;;;2.67;;
9827;SDS011;4953;48.952;9.442;2022-11-20T19:59:54;3.40;;;2.37;;
9827;SDS011;4953;48.952;9.442;2022-11-20T20:02:21;6.43;;;3.80;;
9827;SDS011;4953;48.952;9.442;2022-11-20T20:04:47;3.73;;;3.30;;
9827;SDS011;4953;48.952;9.442;2022-11-20T20:07:15;3.47;;;3.00;;
9827;SDS011;4953;48.952;9.442;2022-11-20T20:09:43;3.30;;;2.83;;
9827;SDS011;4953;48.952;9.442;2022-11-20T20:12:09;2.33;;;2.10;;
9827;SDS011;4953;48.952;9.442;2022-11-20T20:14:36;4.00;;;2.67;;
9827;SDS011;4953;48.952;9.442;2022-11-20T20:17:03;3.20;;;2.80;;
9827;SDS011;4953;48.952;9.442;2022-11-20T20:19:30;2.60;;;2.40;;
9827;SDS011;4953;48.952;9.442;2022-11-20T20:21:57;2.93;;;2.60;;
9827;SDS011;4953;48.952;9.442;2022-11-20T20:24:27;1.73;;;1.63;;
9827;SDS011;4953;48.952;9.442;2022-11-20T20:26:53;2.97;;;2.40;;
9827;SDS011;4953;48.952;9.442;2022-11-20T20:29:21;2.50;;;2.23;;
9827;SDS011;4953;48.952;9.442;2022-11-20T20:31:48;1.70;;;1.60;;
9827;SDS011;4953;48.952;9.442;2022-11-20T20:34:15;2.43;;;1.87;;
9827;SDS011;4953;48.952;9.442;2022-11-20T20:36:43;3.33;;;2.00;;
9827;SDS011;4953;48.952;9.442;2022-11-20T20:39:10;1.63;;;1.53;;